Main page
METAR-TAF:

METAR-TAF

Airports :

Larnaca, Cyprus

Larnaca International Airport

latitude: 34-53N, longitude: 033-38E, elevation: 2 m

Current weather observation

The report was made 43 minutes ago, at 18:30 UTC
Wind 3 kt from the West
Temperature 21°C
Humidity 73%
Pressure 1014 hPa
Visibility 10 km or more
no clouds below 1500 m and no cumulonimbus

METAR: LCLK 211830Z 27003KT CAVOK 21/16 Q1014 NOSIG

Time: 22:13 (19:13 UTC)

Forecast

The report was made 1 hour and 43 minutes ago, at 17:30 UTC
Forecast valid from 21 at 18 UTC to 22 at 18 UTC
Wind 10 kt from the West/Southwest
Visibility 10 km or more
Few clouds at a height of 2500 ft
Becoming
from 21 at 18 UTC to 21 at 21 UTC
Wind 6 kt from the Northwest
Becoming
from 22 at 09 UTC to 22 at 12 UTC
Wind 12 kt from the Southwest

TAF: LCLK 211730Z 2118/2218 24010KT 9999 FEW025 BECMG 2118/2121 32006KT BECMG 2209/2212 22012KT

Weather observations and forecasts of more than 4000 airports (METAR and TAF reports).

The available stations are represented by yellow and red dots on the map.

Hover mouse over dot to see the name of the station.

Then click to see weather observations and forecasts.

To change the map : click on the green buttons with a black cross to zoom in, on the green button with a dash to zoom out, or on the green arrows for adjacent maps.


METAR-TAF: